sensor_id;sensor_type;location;lat;lon;timestamp;pressure;altitude;pressure_sealevel;temperature;humidity
30081;BME280;16902;50.816;12.828;2023-04-19T00:00:54;98571.03;;;6.94;100.00
30081;BME280;16902;50.816;12.828;2023-04-19T00:05:58;98568.03;;;6.89;100.00
30081;BME280;16902;50.816;12.828;2023-04-19T00:11:00;98566.00;;;6.83;100.00
30081;BME280;16902;50.816;12.828;2023-04-19T00:16:01;98562.19;;;6.78;100.00
30081;BME280;16902;50.816;12.828;2023-04-19T00:21:04;98560.69;;;6.75;100.00
30081;BME280;16902;50.816;12.828;2023-04-19T00:26:06;98550.63;;;6.72;100.00
30081;BME280;16902;50.816;12.828;2023-04-19T00:31:08;98542.88;;;6.72;100.00
30081;BME280;16902;50.816;12.828;2023-04-19T00:36:11;98536.03;;;6.71;100.00
30081;BME280;16902;50.816;12.828;2023-04-19T00:41:13;98536.72;;;6.73;100.00
30081;BME280;16902;50.816;12.828;2023-04-19T00:46:15;98530.75;;;6.73;100.00
30081;BME280;16902;50.816;12.828;2023-04-19T00:51:19;98530.03;;;6.70;100.00
30081;BME280;16902;50.816;12.828;2023-04-19T00:56:21;98530.19;;;6.69;100.00
30081;BME280;16902;50.816;12.828;2023-04-19T01:01:26;98518.88;;;6.70;100.00
30081;BME280;16902;50.816;12.828;2023-04-19T01:06:29;98519.56;;;6.62;100.00
30081;BME280;16902;50.816;12.828;2023-04-19T01:11:31;98512.22;;;6.58;100.00
30081;BME280;16902;50.816;12.828;2023-04-19T01:16:32;98512.72;;;6.52;100.00
30081;BME280;16902;50.816;12.828;2023-04-19T01:21:38;98507.31;;;6.55;100.00
30081;BME280;16902;50.816;12.828;2023-04-19T01:26:40;98514.66;;;6.59;100.00
30081;BME280;16902;50.816;12.828;2023-04-19T01:31:45;98503.34;;;6.51;100.00
30081;BME280;16902;50.816;12.828;2023-04-19T01:36:51;98507.28;;;6.45;100.00
30081;BME280;16902;50.816;12.828;2023-04-19T01:41:53;98500.50;;;6.44;100.00
30081;BME280;16902;50.816;12.828;2023-04-19T01:46:55;98502.66;;;6.39;100.00
30081;BME280;16902;50.816;12.828;2023-04-19T01:51:57;98487.97;;;6.39;100.00
30081;BME280;16902;50.816;12.828;2023-04-19T01:57:00;98488.78;;;6.30;100.00
30081;BME280;16902;50.816;12.828;2023-04-19T02:02:05;98484.97;;;6.34;100.00
30081;BME280;16902;50.816;12.828;2023-04-19T02:07:08;98484.25;;;6.23;100.00
30081;BME280;16902;50.816;12.828;2023-04-19T02:12:10;98488.19;;;6.17;100.00
30081;BME280;16902;50.816;12.828;2023-04-19T02:17:12;98485.59;;;6.07;100.00
30081;BME280;16902;50.816;12.828;2023-04-19T02:22:14;98485.19;;;6.02;100.00
30081;BME280;16902;50.816;12.828;2023-04-19T02:27:16;98483.69;;;6.00;100.00
30081;BME280;16902;50.816;12.828;2023-04-19T02:32:18;98480.22;;;5.89;100.00
30081;BME280;16902;50.816;12.828;2023-04-19T02:37:20;98476.97;;;5.87;100.00
30081;BME280;16902;50.816;12.828;2023-04-19T02:42:22;98481.75;;;5.92;100.00
30081;BME280;16902;50.816;12.828;2023-04-19T02:47:27;98477.34;;;5.83;100.00
30081;BME280;16902;50.816;12.828;2023-04-19T02:52:29;98475.41;;;5.75;100.00
30081;BME280;16902;50.816;12.828;2023-04-19T02:57:31;98466.56;;;5.68;100.00
30081;BME280;16902;50.816;12.828;2023-04-19T03:02:33;98460.84;;;5.64;100.00
30081;BME280;16902;50.816;12.828;2023-04-19T03:07:36;98455.38;;;5.58;100.00
30081;BME280;16902;50.816;12.828;2023-04-19T03:12:38;98451.44;;;5.54;100.00
30081;BME280;16902;50.816;12.828;2023-04-19T03:17:40;98445.31;;;5.55;100.00
30081;BME280;16902;50.816;12.828;2023-04-19T03:22:42;98440.03;;;5.56;100.00
30081;BME280;16902;50.816;12.828;2023-04-19T03:27:44;98442.72;;;5.55;100.00
30081;BME280;16902;50.816;12.828;2023-04-19T03:32:52;98441.25;;;5.52;100.00
30081;BME280;16902;50.816;12.828;2023-04-19T03:37:54;98439.16;;;5.46;100.00
30081;BME280;16902;50.816;12.828;2023-04-19T03:42:56;98436.44;;;5.38;100.00
30081;BME280;16902;50.816;12.828;2023-04-19T03:48:02;98433.97;;;5.36;100.00
30081;BME280;16902;50.816;12.828;2023-04-19T03:53:04;98426.88;;;5.29;100.00
30081;BME280;16902;50.816;12.828;2023-04-19T03:58:07;98423.31;;;5.20;100.00
30081;BME280;16902;50.816;12.828;2023-04-19T04:03:18;98418.47;;;5.06;100.00
30081;BME280;16902;50.816;12.828;2023-04-19T04:08:21;98422.78;;;4.96;100.00
30081;BME280;16902;50.816;12.828;2023-04-19T04:13:23;98419.09;;;4.88;100.00
30081;BME280;16902;50.816;12.828;2023-04-19T04:18:37;98419.09;;;4.88;100.00
30081;BME280;16902;50.816;12.828;2023-04-19T04:23:43;98415.13;;;4.84;100.00
30081;BME280;16902;50.816;12.828;2023-04-19T04:28:52;98417.00;;;4.82;100.00
30081;BME280;16902;50.816;12.828;2023-04-19T04:33:54;98419.66;;;4.71;100.00
30081;BME280;16902;50.816;12.828;2023-04-19T04:38:57;98425.06;;;4.68;100.00
30081;BME280;16902;50.816;12.828;2023-04-19T04:43:59;98412.53;;;4.63;100.00
30081;BME280;16902;50.816;12.828;2023-04-19T04:49:05;98415.47;;;4.59;100.00
30081;BME280;16902;50.816;12.828;2023-04-19T04:54:08;98417.00;;;4.61;100.00
30081;BME280;16902;50.816;12.828;2023-04-19T04:59:10;98416.81;;;4.53;100.00
30081;BME280;16902;50.816;12.828;2023-04-19T05:04:17;98420.72;;;4.48;100.00
30081;BME280;16902;50.816;12.828;2023-04-19T05:09:19;98420.50;;;4.39;100.00
30081;BME280;16902;50.816;12.828;2023-04-19T05:14:21;98412.22;;;4.36;100.00
30081;BME280;16902;50.816;12.828;2023-04-19T05:19:25;98415.84;;;4.33;100.00
30081;BME280;16902;50.816;12.828;2023-04-19T05:24:34;98425.59;;;4.30;100.00
30081;BME280;16902;50.816;12.828;2023-04-19T05:29:36;98416.50;;;4.26;100.00
30081;BME280;16902;50.816;12.828;2023-04-19T05:34:38;98417.22;;;4.17;100.00
30081;BME280;16902;50.816;12.828;2023-04-19T05:39:45;98412.69;;;4.09;100.00
30081;BME280;16902;50.816;12.828;2023-04-19T05:44:46;98412.00;;;4.28;100.00
30081;BME280;16902;50.816;12.828;2023-04-19T05:49:50;98412.97;;;4.27;100.00
30081;BME280;16902;50.816;12.828;2023-04-19T05:55:02;98412.25;;;4.25;100.00
30081;BME280;16902;50.816;12.828;2023-04-19T06:00:07;98421.38;;;4.29;100.00
30081;BME280;16902;50.816;12.828;2023-04-19T06:05:25;98416.16;;;4.19;100.00
30081;BME280;16902;50.816;12.828;2023-04-19T06:10:30;98415.84;;;4.33;100.00
30081;BME280;16902;50.816;12.828;2023-04-19T06:15:51;98429.75;;;4.42;100.00
30081;BME280;16902;50.816;12.828;2023-04-19T06:20:53;98423.94;;;4.40;100.00
30081;BME280;16902;50.816;12.828;2023-04-19T06:25:56;98425.50;;;4.73;100.00
30081;BME280;16902;50.816;12.828;2023-04-19T06:30:57;98431.16;;;4.67;100.00
30081;BME280;16902;50.816;12.828;2023-04-19T06:35:59;98424.34;;;4.87;100.00
30081;BME280;16902;50.816;12.828;2023-04-19T06:41:02;98431.16;;;4.88;100.00
30081;BME280;16902;50.816;12.828;2023-04-19T06:46:04;98429.09;;;5.12;100.00
30081;BME280;16902;50.816;12.828;2023-04-19T06:51:06;98422.03;;;4.84;100.00
30081;BME280;16902;50.816;12.828;2023-04-19T06:56:08;98436.25;;;4.57;100.00
30081;BME280;16902;50.816;12.828;2023-04-19T07:01:10;98418.09;;;4.80;100.00
30081;BME280;16902;50.816;12.828;2023-04-19T07:06:13;98421.16;;;4.95;100.00
30081;BME280;16902;50.816;12.828;2023-04-19T07:11:15;98411.66;;;5.35;100.00
30081;BME280;16902;50.816;12.828;2023-04-19T07:16:17;98415.59;;;5.30;100.00
30081;BME280;16902;50.816;12.828;2023-04-19T07:21:19;98419.19;;;5.48;100.00
30081;BME280;16902;50.816;12.828;2023-04-19T07:26:21;98416.44;;;5.40;100.00
30081;BME280;16902;50.816;12.828;2023-04-19T07:31:23;98407.75;;;5.91;100.00
30081;BME280;16902;50.816;12.828;2023-04-19T07:36:26;98405.16;;;5.81;100.00
30081;BME280;16902;50.816;12.828;2023-04-19T07:41:28;98400.78;;;5.72;100.00
30081;BME280;16902;50.816;12.828;2023-04-19T07:46:30;98400.88;;;5.51;100.00
30081;BME280;16902;50.816;12.828;2023-04-19T07:51:32;98408.81;;;5.29;100.00
30081;BME280;16902;50.816;12.828;2023-04-19T07:56:33;98413.69;;;5.22;100.00
30081;BME280;16902;50.816;12.828;2023-04-19T08:01:35;98415.13;;;5.15;100.00
30081;BME280;16902;50.816;12.828;2023-04-19T08:06:37;98414.44;;;5.44;100.00
30081;BME280;16902;50.816;12.828;2023-04-19T08:11:40;98405.09;;;5.62;100.00
30081;BME280;16902;50.816;12.828;2023-04-19T08:16:43;98396.28;;;5.74;100.00
30081;BME280;16902;50.816;12.828;2023-04-19T08:21:48;98393.31;;;5.88;100.00
30081;BME280;16902;50.816;12.828;2023-04-19T08:26:50;98403.63;;;5.69;100.00
30081;BME280;16902;50.816;12.828;2023-04-19T08:31:55;98399.00;;;5.73;100.00
30081;BME280;16902;50.816;12.828;2023-04-19T08:36:57;98389.16;;;5.47;100.00
30081;BME280;16902;50.816;12.828;2023-04-19T08:42:07;98393.50;;;6.16;100.00
30081;BME280;16902;50.816;12.828;2023-04-19T08:47:25;98382.59;;;6.32;100.00
30081;BME280;16902;50.816;12.828;2023-04-19T08:52:34;98372.25;;;6.51;100.00
30081;BME280;16902;50.816;12.828;2023-04-19T08:57:52;98363.13;;;6.47;100.00
30081;BME280;16902;50.816;12.828;2023-04-19T09:02:54;98355.56;;;7.10;100.00
30081;BME280;16902;50.816;12.828;2023-04-19T09:08:20;98349.75;;;7.36;100.00
30081;BME280;16902;50.816;12.828;2023-04-19T09:13:23;98351.03;;;7.67;100.00
30081;BME280;16902;50.816;12.828;2023-04-19T09:18:25;98348.03;;;7.27;100.00
30081;BME280;16902;50.816;12.828;2023-04-19T09:23:31;98327.91;;;7.38;100.00
30081;BME280;16902;50.816;12.828;2023-04-19T09:28:33;98328.72;;;7.84;100.00
30081;BME280;16902;50.816;12.828;2023-04-19T09:33:36;98324.09;;;7.78;100.00
30081;BME280;16902;50.816;12.828;2023-04-19T09:38:48;98320.69;;;8.13;100.00
30081;BME280;16902;50.816;12.828;2023-04-19T09:43:51;98312.53;;;7.72;100.00
30081;BME280;16902;50.816;12.828;2023-04-19T09:54:41;98314.44;;;8.68;100.00
30081;BME280;16902;50.816;12.828;2023-04-19T09:59:44;98311.59;;;8.87;100.00
30081;BME280;16902;50.816;12.828;2023-04-19T10:04:46;98310.56;;;7.84;100.00
30081;BME280;16902;50.816;12.828;2023-04-19T10:10:09;98305.22;;;8.30;100.00
30081;BME280;16902;50.816;12.828;2023-04-19T10:15:22;98291.06;;;8.68;100.00
30081;BME280;16902;50.816;12.828;2023-04-19T10:20:31;98288.13;;;9.56;100.00
30081;BME280;16902;50.816;12.828;2023-04-19T10:25:36;98284.91;;;9.78;100.00
30081;BME280;16902;50.816;12.828;2023-04-19T10:30:52;98282.41;;;9.36;100.00
30081;BME280;16902;50.816;12.828;2023-04-19T10:35:56;98285.38;;;9.90;100.00
30081;BME280;16902;50.816;12.828;2023-04-19T10:40:59;98273.34;;;10.21;100.00
30081;BME280;16902;50.816;12.828;2023-04-19T10:51:15;98257.91;;;9.55;100.00
30081;BME280;16902;50.816;12.828;2023-04-19T10:56:20;98256.13;;;9.71;100.00
30081;BME280;16902;50.816;12.828;2023-04-19T11:11:39;98232.91;;;11.59;100.00
30081;BME280;16902;50.816;12.828;2023-04-19T11:16:41;98227.03;;;9.43;100.00
30081;BME280;16902;50.816;12.828;2023-04-19T11:21:47;98221.88;;;12.48;100.00
30081;BME280;16902;50.816;12.828;2023-04-19T11:26:49;98216.78;;;9.42;100.00
30081;BME280;16902;50.816;12.828;2023-04-19T11:31:55;98206.88;;;8.36;100.00
30081;BME280;16902;50.816;12.828;2023-04-19T11:36:57;98205.84;;;7.77;100.00
30081;BME280;16902;50.816;12.828;2023-04-19T11:41:59;98201.28;;;11.40;100.00
30081;BME280;16902;50.816;12.828;2023-04-19T11:47:02;98205.91;;;9.95;100.00
30081;BME280;16902;50.816;12.828;2023-04-19T11:52:05;98197.63;;;8.68;100.00
30081;BME280;16902;50.816;12.828;2023-04-19T11:57:08;98195.69;;;8.10;100.00
30081;BME280;16902;50.816;12.828;2023-04-19T12:02:11;98187.53;;;12.66;100.00
30081;BME280;16902;50.816;12.828;2023-04-19T12:07:13;98175.41;;;12.94;100.00
30081;BME280;16902;50.816;12.828;2023-04-19T12:12:30;98177.72;;;10.40;100.00
30081;BME280;16902;50.816;12.828;2023-04-19T12:17:32;98173.13;;;10.42;100.00
30081;BME280;16902;50.816;12.828;2023-04-19T12:22:34;98167.44;;;11.92;100.00
30081;BME280;16902;50.816;12.828;2023-04-19T12:27:36;98155.97;;;16.84;100.00
30081;BME280;16902;50.816;12.828;2023-04-19T12:32:38;98164.28;;;14.27;100.00
30081;BME280;16902;50.816;12.828;2023-04-19T12:37:40;98157.69;;;14.03;100.00
30081;BME280;16902;50.816;12.828;2023-04-19T12:42:42;98154.31;;;12.45;100.00
30081;BME280;16902;50.816;12.828;2023-04-19T12:47:45;98160.44;;;14.64;100.00
30081;BME280;16902;50.816;12.828;2023-04-19T12:52:50;98149.56;;;11.66;100.00
30081;BME280;16902;50.816;12.828;2023-04-19T12:57:54;98146.28;;;15.27;100.00
30081;BME280;16902;50.816;12.828;2023-04-19T13:02:56;98149.88;;;11.25;100.00
30081;BME280;16902;50.816;12.828;2023-04-19T13:07:58;98149.97;;;11.55;100.00
30081;BME280;16902;50.816;12.828;2023-04-19T13:13:00;98139.13;;;10.43;100.00
30081;BME280;16902;50.816;12.828;2023-04-19T13:18:02;98142.44;;;15.16;100.00
30081;BME280;16902;50.816;12.828;2023-04-19T13:23:04;98118.53;;;13.39;100.00
30081;BME280;16902;50.816;12.828;2023-04-19T13:28:06;98134.59;;;9.00;100.00
30081;BME280;16902;50.816;12.828;2023-04-19T13:33:08;98130.16;;;7.30;100.00
30081;BME280;16902;50.816;12.828;2023-04-19T13:38:10;98121.72;;;6.56;100.00
30081;BME280;16902;50.816;12.828;2023-04-19T13:43:12;98123.69;;;7.08;100.00
30081;BME280;16902;50.816;12.828;2023-04-19T13:48:14;98124.44;;;7.62;100.00
30081;BME280;16902;50.816;12.828;2023-04-19T13:53:16;98125.66;;;8.86;100.00
30081;BME280;16902;50.816;12.828;2023-04-19T13:58:18;98121.44;;;14.07;100.00
30081;BME280;16902;50.816;12.828;2023-04-19T14:03:21;98108.88;;;20.80;82.25
30081;BME280;16902;50.816;12.828;2023-04-19T14:08:24;98106.63;;;23.16;48.77
30081;BME280;16902;50.816;12.828;2023-04-19T14:13:26;98102.53;;;18.15;79.19
30081;BME280;16902;50.816;12.828;2023-04-19T14:18:28;98100.69;;;13.71;100.00
30081;BME280;16902;50.816;12.828;2023-04-19T14:23:30;98093.56;;;10.78;100.00
30081;BME280;16902;50.816;12.828;2023-04-19T14:28:33;98079.19;;;10.20;100.00
30081;BME280;16902;50.816;12.828;2023-04-19T14:33:35;98066.03;;;8.60;100.00
30081;BME280;16902;50.816;12.828;2023-04-19T14:38:37;98062.94;;;8.06;100.00
30081;BME280;16902;50.816;12.828;2023-04-19T14:43:39;98066.53;;;7.45;100.00
30081;BME280;16902;50.816;12.828;2023-04-19T14:48:40;98061.09;;;7.30;100.00
30081;BME280;16902;50.816;12.828;2023-04-19T14:53:43;98060.41;;;7.80;100.00
30081;BME280;16902;50.816;12.828;2023-04-19T14:58:45;98066.63;;;9.76;100.00
30081;BME280;16902;50.816;12.828;2023-04-19T15:03:47;98061.00;;;10.51;100.00
30081;BME280;16902;50.816;12.828;2023-04-19T15:08:49;98068.78;;;11.58;100.00
30081;BME280;16902;50.816;12.828;2023-04-19T15:13:51;98099.59;;;7.51;100.00
30081;BME280;16902;50.816;12.828;2023-04-19T15:18:52;98101.34;;;6.53;100.00
30081;BME280;16902;50.816;12.828;2023-04-19T15:23:54;98108.16;;;5.80;100.00
30081;BME280;16902;50.816;12.828;2023-04-19T15:28:56;98118.88;;;5.09;100.00
30081;BME280;16902;50.816;12.828;2023-04-19T15:34:01;98121.25;;;4.52;100.00
30081;BME280;16902;50.816;12.828;2023-04-19T15:39:03;98106.66;;;4.22;100.00
30081;BME280;16902;50.816;12.828;2023-04-19T15:44:05;98084.53;;;4.20;100.00
30081;BME280;16902;50.816;12.828;2023-04-19T15:49:07;98089.22;;;4.35;100.00
30081;BME280;16902;50.816;12.828;2023-04-19T15:54:09;98073.38;;;4.69;100.00
30081;BME280;16902;50.816;12.828;2023-04-19T15:59:12;98100.66;;;4.91;100.00
30081;BME280;16902;50.816;12.828;2023-04-19T16:04:14;98105.41;;;4.96;100.00
30081;BME280;16902;50.816;12.828;2023-04-19T16:09:16;98097.94;;;4.83;100.00
30081;BME280;16902;50.816;12.828;2023-04-19T16:14:20;98111.50;;;4.66;100.00
30081;BME280;16902;50.816;12.828;2023-04-19T16:19:21;98099.84;;;4.71;100.00
30081;BME280;16902;50.816;12.828;2023-04-19T16:24:24;98095.75;;;4.88;100.00
30081;BME280;16902;50.816;12.828;2023-04-19T16:29:26;98095.78;;;4.98;100.00
30081;BME280;16902;50.816;12.828;2023-04-19T16:34:28;98086.53;;;5.24;100.00
30081;BME280;16902;50.816;12.828;2023-04-19T16:39:30;98086.44;;;5.63;100.00
30081;BME280;16902;50.816;12.828;2023-04-19T16:44:31;98079.88;;;5.78;100.00
30081;BME280;16902;50.816;12.828;2023-04-19T16:49:33;98092.16;;;5.66;100.00
30081;BME280;16902;50.816;12.828;2023-04-19T16:54:35;98091.16;;;5.21;100.00
30081;BME280;16902;50.816;12.828;2023-04-19T16:59:38;98084.13;;;4.94;100.00
30081;BME280;16902;50.816;12.828;2023-04-19T17:04:40;98076.06;;;4.68;100.00
30081;BME280;16902;50.816;12.828;2023-04-19T17:09:42;98070.34;;;4.54;100.00
30081;BME280;16902;50.816;12.828;2023-04-19T17:14:44;98075.78;;;4.42;100.00
30081;BME280;16902;50.816;12.828;2023-04-19T17:19:46;98069.00;;;4.31;100.00
30081;BME280;16902;50.816;12.828;2023-04-19T17:24:48;98060.00;;;4.25;100.00
30081;BME280;16902;50.816;12.828;2023-04-19T17:29:50;98075.47;;;4.25;100.00
30081;BME280;16902;50.816;12.828;2023-04-19T17:34:51;98071.53;;;4.21;100.00
30081;BME280;16902;50.816;12.828;2023-04-19T17:39:53;98065.56;;;4.21;100.00
30081;BME280;16902;50.816;12.828;2023-04-19T17:44:55;98067.31;;;4.20;100.00
30081;BME280;16902;50.816;12.828;2023-04-19T17:50:05;98070.41;;;4.14;100.00
30081;BME280;16902;50.816;12.828;2023-04-19T17:55:08;98066.19;;;4.03;100.00
30081;BME280;16902;50.816;12.828;2023-04-19T18:00:10;98066.97;;;3.94;100.00
30081;BME280;16902;50.816;12.828;2023-04-19T18:05:13;98062.22;;;3.90;100.00
30081;BME280;16902;50.816;12.828;2023-04-19T18:10:15;98058.28;;;3.95;100.00
30081;BME280;16902;50.816;12.828;2023-04-19T18:15:17;98063.34;;;3.97;100.00
30081;BME280;16902;50.816;12.828;2023-04-19T18:20:19;98063.44;;;3.95;100.00
30081;BME280;16902;50.816;12.828;2023-04-19T18:25:21;98056.94;;;4.01;100.00
30081;BME280;16902;50.816;12.828;2023-04-19T18:30:23;98057.34;;;3.96;100.00
30081;BME280;16902;50.816;12.828;2023-04-19T18:35:25;98062.63;;;3.95;100.00
30081;BME280;16902;50.816;12.828;2023-04-19T18:40:27;98052.19;;;3.96;100.00
30081;BME280;16902;50.816;12.828;2023-04-19T18:45:29;98061.56;;;3.97;100.00
30081;BME280;16902;50.816;12.828;2023-04-19T18:50:32;98061.06;;;4.13;100.00
30081;BME280;16902;50.816;12.828;2023-04-19T18:55:34;98047.66;;;4.19;100.00
30081;BME280;16902;50.816;12.828;2023-04-19T19:00:36;98056.75;;;4.23;100.00
30081;BME280;16902;50.816;12.828;2023-04-19T19:05:38;98058.50;;;4.23;100.00
30081;BME280;16902;50.816;12.828;2023-04-19T19:10:40;98056.19;;;4.20;100.00
30081;BME280;16902;50.816;12.828;2023-04-19T19:15:45;98057.41;;;4.16;100.00
30081;BME280;16902;50.816;12.828;2023-04-19T19:20:47;98057.53;;;4.14;100.00
30081;BME280;16902;50.816;12.828;2023-04-19T19:25:51;98059.56;;;4.20;100.00
30081;BME280;16902;50.816;12.828;2023-04-19T19:30:53;98057.56;;;4.24;100.00
30081;BME280;16902;50.816;12.828;2023-04-19T19:35:57;98052.53;;;4.22;100.00
30081;BME280;16902;50.816;12.828;2023-04-19T19:40:59;98041.28;;;4.23;100.00
30081;BME280;16902;50.816;12.828;2023-04-19T19:46:20;98039.66;;;4.22;100.00
30081;BME280;16902;50.816;12.828;2023-04-19T19:51:23;98045.78;;;4.21;100.00
30081;BME280;16902;50.816;12.828;2023-04-19T19:56:28;98041.69;;;4.19;100.00
30081;BME280;16902;50.816;12.828;2023-04-19T20:01:30;98038.16;;;4.20;100.00
30081;BME280;16902;50.816;12.828;2023-04-19T20:06:32;98033.81;;;4.20;100.00
30081;BME280;16902;50.816;12.828;2023-04-19T20:11:54;98032.03;;;4.01;100.00
30081;BME280;16902;50.816;12.828;2023-04-19T20:16:56;98027.81;;;4.00;100.00
30081;BME280;16902;50.816;12.828;2023-04-19T20:21:57;98017.50;;;4.00;100.00
30081;BME280;16902;50.816;12.828;2023-04-19T20:27:01;98014.66;;;4.03;100.00
30081;BME280;16902;50.816;12.828;2023-04-19T20:32:02;98014.09;;;4.00;100.00
30081;BME280;16902;50.816;12.828;2023-04-19T20:37:04;98014.25;;;3.98;100.00
30081;BME280;16902;50.816;12.828;2023-04-19T20:42:07;98009.34;;;3.95;100.00
30081;BME280;16902;50.816;12.828;2023-04-19T20:47:09;98012.84;;;3.84;100.00
30081;BME280;16902;50.816;12.828;2023-04-19T20:52:13;98015.03;;;3.89;100.00
30081;BME280;16902;50.816;12.828;2023-04-19T20:57:15;98019.38;;;3.89;100.00
30081;BME280;16902;50.816;12.828;2023-04-19T21:02:17;98020.22;;;3.99;100.00
30081;BME280;16902;50.816;12.828;2023-04-19T21:07:19;98023.63;;;4.09;100.00
30081;BME280;16902;50.816;12.828;2023-04-19T21:12:21;98020.25;;;4.18;100.00
30081;BME280;16902;50.816;12.828;2023-04-19T21:17:23;98026.06;;;4.20;100.00
30081;BME280;16902;50.816;12.828;2023-04-19T21:22:24;98019.31;;;4.19;100.00
30081;BME280;16902;50.816;12.828;2023-04-19T21:27:26;98016.06;;;4.27;100.00
30081;BME280;16902;50.816;12.828;2023-04-19T21:32:31;98012.28;;;4.21;100.00
30081;BME280;16902;50.816;12.828;2023-04-19T21:37:34;98005.19;;;4.13;100.00
30081;BME280;16902;50.816;12.828;2023-04-19T21:42:36;98000.19;;;4.12;100.00
30081;BME280;16902;50.816;12.828;2023-04-19T21:47:38;98006.41;;;4.09;100.00
30081;BME280;16902;50.816;12.828;2023-04-19T21:52:40;98005.03;;;4.05;100.00
30081;BME280;16902;50.816;12.828;2023-04-19T21:57:42;98003.00;;;3.99;100.00
30081;BME280;16902;50.816;12.828;2023-04-19T22:02:43;98003.97;;;4.08;100.00
30081;BME280;16902;50.816;12.828;2023-04-19T22:07:45;98004.78;;;4.08;100.00
30081;BME280;16902;50.816;12.828;2023-04-19T22:12:48;98003.81;;;4.00;100.00
30081;BME280;16902;50.816;12.828;2023-04-19T22:17:59;97995.78;;;3.83;100.00
30081;BME280;16902;50.816;12.828;2023-04-19T22:23:03;97996.09;;;3.59;100.00
30081;BME280;16902;50.816;12.828;2023-04-19T22:28:05;98003.31;;;3.35;100.00
30081;BME280;16902;50.816;12.828;2023-04-19T22:33:08;97998.41;;;3.32;100.00
30081;BME280;16902;50.816;12.828;2023-04-19T22:38:11;97997.84;;;3.28;100.00
30081;BME280;16902;50.816;12.828;2023-04-19T22:43:13;97990.88;;;3.40;100.00
30081;BME280;16902;50.816;12.828;2023-04-19T22:48:15;97991.75;;;3.60;100.00
30081;BME280;16902;50.816;12.828;2023-04-19T22:53:20;97989.63;;;3.65;100.00
30081;BME280;16902;50.816;12.828;2023-04-19T22:58:21;97982.72;;;3.75;100.00
30081;BME280;16902;50.816;12.828;2023-04-19T23:03:23;97983.19;;;3.90;100.00
30081;BME280;16902;50.816;12.828;2023-04-19T23:08:25;97982.13;;;3.93;100.00
30081;BME280;16902;50.816;12.828;2023-04-19T23:13:28;97967.88;;;3.89;100.00
30081;BME280;16902;50.816;12.828;2023-04-19T23:18:29;97973.25;;;3.76;100.00
30081;BME280;16902;50.816;12.828;2023-04-19T23:23:31;97969.72;;;3.77;100.00
30081;BME280;16902;50.816;12.828;2023-04-19T23:28:33;97965.28;;;3.89;100.00
30081;BME280;16902;50.816;12.828;2023-04-19T23:33:35;97962.97;;;3.85;100.00
30081;BME280;16902;50.816;12.828;2023-04-19T23:38:36;97964.91;;;3.93;100.00
30081;BME280;16902;50.816;12.828;2023-04-19T23:43:38;97964.22;;;4.01;100.00
30081;BME280;16902;50.816;12.828;2023-04-19T23:48:40;97958.38;;;3.99;100.00
30081;BME280;16902;50.816;12.828;2023-04-19T23:53:41;97957.53;;;3.79;100.00
30081;BME280;16902;50.816;12.828;2023-04-19T23:58:43;97953.31;;;3.68;100.00
